Tuttle, Idaho
Current Conditions -  °F | °C
As of 11:53 AM on Friday 31 Oct 2014 (Local Time) from KJER Reporting Station
Clear Clear  
Wind Chill: 17°   Ceiling: Unl
Heat Index: 17°   Visibility: 10mi
Dew Point:   Wind: 3mph
Humidity: 35%   Direction: NA
Pressure: 29.88"   Gusts: NA
Location:  43.0634°N, 114.867°W
Report Text: KJER 311753Z AUTO VRB03KT 10SM CLR 17/01 A2988 RMK AO2 SLP099 T01670011 10167 20078 58001
Loading
Personal Weather Stations






























Interactive Weather Map
Tropical Storm Tracking
New forecast layout! Learn more

10-Day Weather Forecast

Advertisements
Track Severe Weather on mobile